sensor_id;sensor_type;location;lat;lon;timestamp;pressure;altitude;pressure_sealevel;temperature;humidity
68628;BME280;55611;48.602;9.490;2023-05-19T00:00:03;97360;;;15.5;55.5
68628;BME280;55611;48.602;9.490;2023-05-19T00:02:34;97360;;;15.5;55.5
68628;BME280;55611;48.602;9.490;2023-05-19T00:05:05;97360;;;15.5;55.5
68628;BME280;55611;48.602;9.490;2023-05-19T00:07:37;97360;;;15.5;55.5
68628;BME280;55611;48.602;9.490;2023-05-19T00:10:06;97360;;;15.5;55.5
68628;BME280;55611;48.602;9.490;2023-05-19T00:12:37;97350;;;15.5;55.5
68628;BME280;55611;48.602;9.490;2023-05-19T00:15:08;97350;;;15.5;55.5
68628;BME280;55611;48.602;9.490;2023-05-19T00:17:38;97350;;;15.5;55.5
68628;BME280;55611;48.602;9.490;2023-05-19T00:20:09;97340;;;15.5;55.5
68628;BME280;55611;48.602;9.490;2023-05-19T00:22:40;97340;;;15.4;55.5
68628;BME280;55611;48.602;9.490;2023-05-19T00:25:11;97340;;;15.4;55.5
68628;BME280;55611;48.602;9.490;2023-05-19T00:27:44;97340;;;15.4;55.5
68628;BME280;55611;48.602;9.490;2023-05-19T00:30:12;97350;;;15.4;55.5
68628;BME280;55611;48.602;9.490;2023-05-19T00:32:43;97350;;;15.3;55.5
68628;BME280;55611;48.602;9.490;2023-05-19T00:35:14;97340;;;15.3;55.5
68628;BME280;55611;48.602;9.490;2023-05-19T00:37:45;97340;;;15.3;55.5
68628;BME280;55611;48.602;9.490;2023-05-19T00:40:15;97330;;;15.3;55.5
68628;BME280;55611;48.602;9.490;2023-05-19T00:42:46;97330;;;15.3;55.5
68628;BME280;55611;48.602;9.490;2023-05-19T00:45:17;97330;;;15.3;55.5
68628;BME280;55611;48.602;9.490;2023-05-19T00:47:48;97330;;;15.3;55.5
68628;BME280;55611;48.602;9.490;2023-05-19T00:50:19;97330;;;15.3;55.5
68628;BME280;55611;48.602;9.490;2023-05-19T00:52:50;97340;;;15.3;55.5
68628;BME280;55611;48.602;9.490;2023-05-19T00:55:22;97330;;;15.3;55.5
68628;BME280;55611;48.602;9.490;2023-05-19T00:57:51;97330;;;15.2;55.5
68628;BME280;55611;48.602;9.490;2023-05-19T01:00:22;97330;;;15.2;55.5
68628;BME280;55611;48.602;9.490;2023-05-19T01:02:52;97330;;;15.2;55.5
68628;BME280;55611;48.602;9.490;2023-05-19T01:05:23;97330;;;15.2;55.5
68628;BME280;55611;48.602;9.490;2023-05-19T01:07:54;97330;;;15.2;55.5
68628;BME280;55611;48.602;9.490;2023-05-19T01:10:25;97330;;;15.2;55.5
68628;BME280;55611;48.602;9.490;2023-05-19T01:12:56;97320;;;15.2;55.5
68628;BME280;55611;48.602;9.490;2023-05-19T01:15:26;97330;;;15.2;55.5
68628;BME280;55611;48.602;9.490;2023-05-19T01:18:03;97320;;;15.1;55.5
68628;BME280;55611;48.602;9.490;2023-05-19T01:20:31;97320;;;15.1;55.5
68628;BME280;55611;48.602;9.490;2023-05-19T01:25:34;97320;;;15.1;55.5
68628;BME280;55611;48.602;9.490;2023-05-19T01:28:09;97320;;;15.1;55.5
68628;BME280;55611;48.602;9.490;2023-05-19T01:30:32;97320;;;15;55.5
68628;BME280;55611;48.602;9.490;2023-05-19T01:33:04;97320;;;15;55.5
68628;BME280;55611;48.602;9.490;2023-05-19T01:35:34;97330;;;15;55.5
68628;BME280;55611;48.602;9.490;2023-05-19T01:38:04;97330;;;14.9;55.5
68628;BME280;55611;48.602;9.490;2023-05-19T01:40:34;97330;;;14.9;55.5
68628;BME280;55611;48.602;9.490;2023-05-19T01:43:07;97330;;;14.9;55.5
68628;BME280;55611;48.602;9.490;2023-05-19T01:45:36;97340;;;14.9;55.5
68628;BME280;55611;48.602;9.490;2023-05-19T01:48:06;97330;;;14.9;55.5
68628;BME280;55611;48.602;9.490;2023-05-19T01:50:37;97330;;;14.9;55.5
68628;BME280;55611;48.602;9.490;2023-05-19T01:53:08;97340;;;14.9;55.5
68628;BME280;55611;48.602;9.490;2023-05-19T01:55:41;97340;;;14.9;55.5
68628;BME280;55611;48.602;9.490;2023-05-19T01:58:14;97340;;;14.9;55.5
68628;BME280;55611;48.602;9.490;2023-05-19T02:00:44;97330;;;14.8;55.5
68628;BME280;55611;48.602;9.490;2023-05-19T02:03:16;97330;;;14.8;55.5
68628;BME280;55611;48.602;9.490;2023-05-19T02:05:44;97330;;;14.7;55.5
68628;BME280;55611;48.602;9.490;2023-05-19T02:10:44;97320;;;14.5;55.5
68628;BME280;55611;48.602;9.490;2023-05-19T02:13:14;97320;;;14.6;55.5
68628;BME280;55611;48.602;9.490;2023-05-19T02:15:45;97320;;;14.5;55.5
68628;BME280;55611;48.602;9.490;2023-05-19T02:18:16;97320;;;14.5;55.5
68628;BME280;55611;48.602;9.490;2023-05-19T02:20:46;97310;;;14.4;55.5
68628;BME280;55611;48.602;9.490;2023-05-19T02:23:17;97310;;;14.4;55.5
68628;BME280;55611;48.602;9.490;2023-05-19T02:25:48;97310;;;14.4;55.5
68628;BME280;55611;48.602;9.490;2023-05-19T02:28:19;97310;;;14.4;55.5
68628;BME280;55611;48.602;9.490;2023-05-19T02:30:50;97310;;;14.4;55.5
68628;BME280;55611;48.602;9.490;2023-05-19T02:33:20;97310;;;14.4;55.5
68628;BME280;55611;48.602;9.490;2023-05-19T02:35:51;97310;;;14.4;55.5
68628;BME280;55611;48.602;9.490;2023-05-19T02:38:22;97310;;;14.4;55.5
68628;BME280;55611;48.602;9.490;2023-05-19T02:40:53;97300;;;14.4;55.5
68628;BME280;55611;48.602;9.490;2023-05-19T02:43:23;97300;;;14.3;55.5
68628;BME280;55611;48.602;9.490;2023-05-19T02:45:54;97300;;;14.3;55.5
68628;BME280;55611;48.602;9.490;2023-05-19T02:48:25;97300;;;14.3;55.5
68628;BME280;55611;48.602;9.490;2023-05-19T02:50:56;97300;;;14.3;55.5
68628;BME280;55611;48.602;9.490;2023-05-19T02:53:27;97300;;;14.3;55.5
68628;BME280;55611;48.602;9.490;2023-05-19T02:55:57;97300;;;14.3;55.5
68628;BME280;55611;48.602;9.490;2023-05-19T02:58:28;97300;;;14.3;55.5
68628;BME280;55611;48.602;9.490;2023-05-19T03:00:59;97300;;;14.4;56
68628;BME280;55611;48.602;9.490;2023-05-19T03:03:30;97300;;;14.4;56
68628;BME280;55611;48.602;9.490;2023-05-19T03:06:00;97310;;;14.4;56
68628;BME280;55611;48.602;9.490;2023-05-19T03:08:31;97300;;;14.4;56
68628;BME280;55611;48.602;9.490;2023-05-19T03:11:02;97300;;;14.4;56
68628;BME280;55611;48.602;9.490;2023-05-19T03:13:33;97300;;;14.5;56
68628;BME280;55611;48.602;9.490;2023-05-19T03:16:03;97310;;;14.5;56
68628;BME280;55611;48.602;9.490;2023-05-19T03:18:34;97300;;;14.5;56
68628;BME280;55611;48.602;9.490;2023-05-19T03:21:05;97300;;;14.5;56
68628;BME280;55611;48.602;9.490;2023-05-19T03:23:36;97310;;;14.5;55.5
68628;BME280;55611;48.602;9.490;2023-05-19T03:26:07;97300;;;14.5;55.5
68628;BME280;55611;48.602;9.490;2023-05-19T03:28:37;97300;;;14.5;55.5
68628;BME280;55611;48.602;9.490;2023-05-19T03:31:08;97300;;;14.5;55.5
68628;BME280;55611;48.602;9.490;2023-05-19T03:33:39;97300;;;14.5;55.5
68628;BME280;55611;48.602;9.490;2023-05-19T03:36:10;97310;;;14.4;55.5
68628;BME280;55611;48.602;9.490;2023-05-19T03:38:40;97310;;;14.4;55.5
68628;BME280;55611;48.602;9.490;2023-05-19T03:41:11;97310;;;14.4;55.5
68628;BME280;55611;48.602;9.490;2023-05-19T03:43:42;97310;;;14.4;55.5
68628;BME280;55611;48.602;9.490;2023-05-19T03:46:13;97310;;;14.5;55.5
68628;BME280;55611;48.602;9.490;2023-05-19T03:48:44;97310;;;14.5;55.5
68628;BME280;55611;48.602;9.490;2023-05-19T03:51:14;97310;;;14.4;55.5
68628;BME280;55611;48.602;9.490;2023-05-19T03:53:45;97300;;;14.4;55.5
68628;BME280;55611;48.602;9.490;2023-05-19T03:56:16;97300;;;14.4;55.5
68628;BME280;55611;48.602;9.490;2023-05-19T03:58:47;97300;;;14.4;55.5
68628;BME280;55611;48.602;9.490;2023-05-19T04:01:17;97300;;;14.4;55.5
68628;BME280;55611;48.602;9.490;2023-05-19T04:03:48;97300;;;14.4;56
68628;BME280;55611;48.602;9.490;2023-05-19T04:06:19;97300;;;14.4;56
68628;BME280;55611;48.602;9.490;2023-05-19T04:08:50;97300;;;14.5;55.5
68628;BME280;55611;48.602;9.490;2023-05-19T04:11:20;97300;;;14.4;55.5
68628;BME280;55611;48.602;9.490;2023-05-19T04:13:51;97300;;;14.4;56
68628;BME280;55611;48.602;9.490;2023-05-19T04:16:22;97300;;;14.4;56
68628;BME280;55611;48.602;9.490;2023-05-19T04:18:53;97290;;;14.4;56
68628;BME280;55611;48.602;9.490;2023-05-19T04:21:24;97300;;;14.4;56
68628;BME280;55611;48.602;9.490;2023-05-19T04:23:54;97300;;;14.4;56
68628;BME280;55611;48.602;9.490;2023-05-19T04:26:25;97310;;;14.5;56
68628;BME280;55611;48.602;9.490;2023-05-19T04:28:56;97300;;;14.5;56
68628;BME280;55611;48.602;9.490;2023-05-19T04:31:27;97310;;;14.5;56
68628;BME280;55611;48.602;9.490;2023-05-19T04:33:58;97300;;;14.6;56
68628;BME280;55611;48.602;9.490;2023-05-19T04:36:28;97290;;;14.6;56
68628;BME280;55611;48.602;9.490;2023-05-19T04:38:59;97290;;;14.7;56
68628;BME280;55611;48.602;9.490;2023-05-19T04:41:30;97290;;;14.8;56
68628;BME280;55611;48.602;9.490;2023-05-19T04:44:01;97300;;;14.9;56
68628;BME280;55611;48.602;9.490;2023-05-19T04:46:31;97300;;;15.1;55.5
68628;BME280;55611;48.602;9.490;2023-05-19T04:49:02;97320;;;15.2;55.5
68628;BME280;55611;48.602;9.490;2023-05-19T04:51:33;97320;;;15.3;56
68628;BME280;55611;48.602;9.490;2023-05-19T04:54:04;97320;;;15.3;56
68628;BME280;55611;48.602;9.490;2023-05-19T04:56:35;97320;;;15.4;56
68628;BME280;55611;48.602;9.490;2023-05-19T04:59:05;97320;;;15.6;55.5
68628;BME280;55611;48.602;9.490;2023-05-19T05:01:36;97320;;;15.7;55.5
68628;BME280;55611;48.602;9.490;2023-05-19T05:04:07;97320;;;15.8;55.5
68628;BME280;55611;48.602;9.490;2023-05-19T05:06:38;97320;;;15.9;55.5
68628;BME280;55611;48.602;9.490;2023-05-19T05:09:08;97320;;;15.9;55.5
68628;BME280;55611;48.602;9.490;2023-05-19T05:11:39;97320;;;16;55.5
68628;BME280;55611;48.602;9.490;2023-05-19T05:14:10;97320;;;16.1;55.5
68628;BME280;55611;48.602;9.490;2023-05-19T05:16:41;97320;;;16.1;55.5
68628;BME280;55611;48.602;9.490;2023-05-19T05:19:11;97310;;;16;55.5
68628;BME280;55611;48.602;9.490;2023-05-19T05:21:42;97310;;;15.9;55.5
68628;BME280;55611;48.602;9.490;2023-05-19T05:24:13;97320;;;15.9;55.5
68628;BME280;55611;48.602;9.490;2023-05-19T05:26:44;97310;;;15.8;55.5
68628;BME280;55611;48.602;9.490;2023-05-19T05:29:14;97310;;;15.8;55.5
68628;BME280;55611;48.602;9.490;2023-05-19T05:31:45;97310;;;15.8;55.5
68628;BME280;55611;48.602;9.490;2023-05-19T05:34:16;97310;;;15.9;55.5
68628;BME280;55611;48.602;9.490;2023-05-19T05:36:47;97300;;;15.9;55.5
68628;BME280;55611;48.602;9.490;2023-05-19T05:39:18;97310;;;15.9;55.5
68628;BME280;55611;48.602;9.490;2023-05-19T05:41:48;97310;;;16.1;55.5
68628;BME280;55611;48.602;9.490;2023-05-19T05:44:19;97310;;;16;55.5
68628;BME280;55611;48.602;9.490;2023-05-19T05:46:50;97310;;;16;55.5
68628;BME280;55611;48.602;9.490;2023-05-19T05:49:21;97310;;;16;55.5
68628;BME280;55611;48.602;9.490;2023-05-19T05:51:52;97310;;;15.8;56
68628;BME280;55611;48.602;9.490;2023-05-19T05:54:22;97320;;;15.8;56
68628;BME280;55611;48.602;9.490;2023-05-19T05:56:53;97320;;;15.7;55.5
68628;BME280;55611;48.602;9.490;2023-05-19T05:59:24;97320;;;15.7;55.5
68628;BME280;55611;48.602;9.490;2023-05-19T06:01:55;97320;;;15.7;55.5
68628;BME280;55611;48.602;9.490;2023-05-19T06:04:25;97320;;;15.6;55.5
68628;BME280;55611;48.602;9.490;2023-05-19T06:06:56;97320;;;15.5;55.5
68628;BME280;55611;48.602;9.490;2023-05-19T06:09:27;97320;;;15.4;55.5
68628;BME280;55611;48.602;9.490;2023-05-19T06:11:58;97310;;;15.3;55.5
68628;BME280;55611;48.602;9.490;2023-05-19T06:14:28;97320;;;15.3;56
68628;BME280;55611;48.602;9.490;2023-05-19T06:16:59;97310;;;15.3;56
68628;BME280;55611;48.602;9.490;2023-05-19T06:19:30;97320;;;15.4;56
68628;BME280;55611;48.602;9.490;2023-05-19T06:22:01;97310;;;15.5;56
68628;BME280;55611;48.602;9.490;2023-05-19T06:24:32;97310;;;15.6;56
68628;BME280;55611;48.602;9.490;2023-05-19T06:27:02;97320;;;15.7;56
68628;BME280;55611;48.602;9.490;2023-05-19T06:29:33;97320;;;15.8;56
68628;BME280;55611;48.602;9.490;2023-05-19T06:32:04;97320;;;16;56
68628;BME280;55611;48.602;9.490;2023-05-19T06:34:35;97320;;;16;56
68628;BME280;55611;48.602;9.490;2023-05-19T06:37:05;97310;;;16.2;56
68628;BME280;55611;48.602;9.490;2023-05-19T06:39:36;97320;;;16.1;56
68628;BME280;55611;48.602;9.490;2023-05-19T06:42:07;97320;;;16.1;56
68628;BME280;55611;48.602;9.490;2023-05-19T06:44:38;97320;;;16.1;56
68628;BME280;55611;48.602;9.490;2023-05-19T06:47:09;97320;;;16.1;56
68628;BME280;55611;48.602;9.490;2023-05-19T06:49:39;97310;;;16;56
68628;BME280;55611;48.602;9.490;2023-05-19T06:52:10;97310;;;16;56
68628;BME280;55611;48.602;9.490;2023-05-19T06:54:41;97310;;;16;56
68628;BME280;55611;48.602;9.490;2023-05-19T06:57:12;97310;;;15.9;56
68628;BME280;55611;48.602;9.490;2023-05-19T06:59:42;97320;;;15.9;56
68628;BME280;55611;48.602;9.490;2023-05-19T07:02:13;97320;;;15.7;56
68628;BME280;55611;48.602;9.490;2023-05-19T07:04:44;97320;;;15.7;56
68628;BME280;55611;48.602;9.490;2023-05-19T07:07:15;97310;;;15.8;56
68628;BME280;55611;48.602;9.490;2023-05-19T07:09:45;97310;;;15.9;56
68628;BME280;55611;48.602;9.490;2023-05-19T07:12:16;97310;;;16;56
68628;BME280;55611;48.602;9.490;2023-05-19T07:14:47;97310;;;15.8;56
68628;BME280;55611;48.602;9.490;2023-05-19T07:17:18;97320;;;15.8;56
68628;BME280;55611;48.602;9.490;2023-05-19T07:19:49;97310;;;15.8;56
68628;BME280;55611;48.602;9.490;2023-05-19T07:22:19;97310;;;15.8;56
68628;BME280;55611;48.602;9.490;2023-05-19T07:24:50;97310;;;15.8;56
68628;BME280;55611;48.602;9.490;2023-05-19T07:27:21;97300;;;16;56
68628;BME280;55611;48.602;9.490;2023-05-19T07:32:23;97310;;;16.1;56
68628;BME280;55611;48.602;9.490;2023-05-19T07:34:53;97300;;;16;56.5
68628;BME280;55611;48.602;9.490;2023-05-19T07:37:24;97300;;;16;56.5
68628;BME280;55611;48.602;9.490;2023-05-19T07:39:55;97300;;;16;56
68628;BME280;55611;48.602;9.490;2023-05-19T07:42:26;97300;;;16.1;56
68628;BME280;55611;48.602;9.490;2023-05-19T07:44:56;97290;;;16.4;56
68628;BME280;55611;48.602;9.490;2023-05-19T07:47:28;97300;;;16.4;56
68628;BME280;55611;48.602;9.490;2023-05-19T07:49:58;97300;;;16.4;56
68628;BME280;55611;48.602;9.490;2023-05-19T07:52:29;97300;;;16.3;56
68628;BME280;55611;48.602;9.490;2023-05-19T07:54:59;97300;;;16.3;56
68628;BME280;55611;48.602;9.490;2023-05-19T07:57:30;97300;;;16.4;56
68628;BME280;55611;48.602;9.490;2023-05-19T08:00:01;97300;;;16.3;56
68628;BME280;55611;48.602;9.490;2023-05-19T08:02:32;97300;;;16.3;56
68628;BME280;55611;48.602;9.490;2023-05-19T08:05:03;97300;;;16.3;56
68628;BME280;55611;48.602;9.490;2023-05-19T08:07:33;97300;;;16.3;56
68628;BME280;55611;48.602;9.490;2023-05-19T08:10:04;97300;;;16.2;56
68628;BME280;55611;48.602;9.490;2023-05-19T08:12:35;97290;;;16.3;56
68628;BME280;55611;48.602;9.490;2023-05-19T08:15:06;97290;;;16.3;56
68628;BME280;55611;48.602;9.490;2023-05-19T08:17:36;97290;;;16.4;56
68628;BME280;55611;48.602;9.490;2023-05-19T08:20:07;97290;;;16.5;56
68628;BME280;55611;48.602;9.490;2023-05-19T08:22:38;97280;;;16.5;56
68628;BME280;55611;48.602;9.490;2023-05-19T08:25:09;97280;;;16.7;56
68628;BME280;55611;48.602;9.490;2023-05-19T08:27:39;97280;;;16.8;56
68628;BME280;55611;48.602;9.490;2023-05-19T08:30:10;97270;;;16.8;56
68628;BME280;55611;48.602;9.490;2023-05-19T08:32:41;97270;;;16.7;56
68628;BME280;55611;48.602;9.490;2023-05-19T08:35:12;97280;;;16.5;56
68628;BME280;55611;48.602;9.490;2023-05-19T08:37:43;97280;;;16.3;56
68628;BME280;55611;48.602;9.490;2023-05-19T08:40:15;97280;;;16.4;56
68628;BME280;55611;48.602;9.490;2023-05-19T08:42:44;97270;;;16.4;56
68628;BME280;55611;48.602;9.490;2023-05-19T08:45:15;97270;;;16.2;56
68628;BME280;55611;48.602;9.490;2023-05-19T08:47:46;97280;;;16.2;56
68628;BME280;55611;48.602;9.490;2023-05-19T08:50:20;97270;;;16.3;56
68628;BME280;55611;48.602;9.490;2023-05-19T08:52:50;97270;;;16.5;56
68628;BME280;55611;48.602;9.490;2023-05-19T08:55:23;97270;;;16.6;56
68628;BME280;55611;48.602;9.490;2023-05-19T08:57:49;97270;;;16.8;56
68628;BME280;55611;48.602;9.490;2023-05-19T09:00:20;97270;;;16.9;56
68628;BME280;55611;48.602;9.490;2023-05-19T09:02:50;97260;;;16.9;56
68628;BME280;55611;48.602;9.490;2023-05-19T09:05:22;97260;;;16.7;56
68628;BME280;55611;48.602;9.490;2023-05-19T09:07:52;97260;;;16.6;56
68628;BME280;55611;48.602;9.490;2023-05-19T09:10:23;97260;;;16.7;56
68628;BME280;55611;48.602;9.490;2023-05-19T09:12:53;97270;;;16.5;56
68628;BME280;55611;48.602;9.490;2023-05-19T09:15:25;97260;;;16.4;56
68628;BME280;55611;48.602;9.490;2023-05-19T09:18:11;97260;;;16.3;56
68628;BME280;55611;48.602;9.490;2023-05-19T09:20:29;97270;;;16.4;56
68628;BME280;55611;48.602;9.490;2023-05-19T09:22:57;97260;;;16.4;55.5
68628;BME280;55611;48.602;9.490;2023-05-19T09:25:27;97270;;;16.4;56
68628;BME280;55611;48.602;9.490;2023-05-19T09:27:58;97270;;;16.3;56
68628;BME280;55611;48.602;9.490;2023-05-19T09:30:29;97270;;;16.2;56
68628;BME280;55611;48.602;9.490;2023-05-19T09:33:00;97270;;;16.2;56
68628;BME280;55611;48.602;9.490;2023-05-19T09:35:30;97260;;;16.1;56
68628;BME280;55611;48.602;9.490;2023-05-19T09:38:01;97260;;;16.2;56
68628;BME280;55611;48.602;9.490;2023-05-19T09:40:32;97270;;;16.2;56
68628;BME280;55611;48.602;9.490;2023-05-19T09:43:03;97260;;;16.3;56
68628;BME280;55611;48.602;9.490;2023-05-19T09:45:34;97260;;;16.3;56
68628;BME280;55611;48.602;9.490;2023-05-19T09:48:04;97260;;;16.3;56
68628;BME280;55611;48.602;9.490;2023-05-19T09:50:35;97260;;;16.4;56
68628;BME280;55611;48.602;9.490;2023-05-19T09:53:06;97260;;;16.5;55.5
68628;BME280;55611;48.602;9.490;2023-05-19T09:55:37;97250;;;16.6;55.5
68628;BME280;55611;48.602;9.490;2023-05-19T09:58:08;97250;;;16.7;56
68628;BME280;55611;48.602;9.490;2023-05-19T10:00:38;97250;;;16.7;55.5
68628;BME280;55611;48.602;9.490;2023-05-19T10:03:09;97250;;;16.7;55.5
68628;BME280;55611;48.602;9.490;2023-05-19T10:05:40;97250;;;16.7;55.5
68628;BME280;55611;48.602;9.490;2023-05-19T10:08:11;97240;;;16.6;55.5
68628;BME280;55611;48.602;9.490;2023-05-19T10:10:41;97250;;;16.6;55.5
68628;BME280;55611;48.602;9.490;2023-05-19T10:13:12;97250;;;16.7;55.5
68628;BME280;55611;48.602;9.490;2023-05-19T10:15:43;97250;;;16.8;55.5
68628;BME280;55611;48.602;9.490;2023-05-19T10:20:44;97250;;;17.2;55.5
68628;BME280;55611;48.602;9.490;2023-05-19T10:23:15;97250;;;17.4;55.5
68628;BME280;55611;48.602;9.490;2023-05-19T10:25:46;97250;;;17.3;55.5
68628;BME280;55611;48.602;9.490;2023-05-19T10:28:17;97250;;;17.2;55.5
68628;BME280;55611;48.602;9.490;2023-05-19T10:30:48;97250;;;17.1;55.5
68628;BME280;55611;48.602;9.490;2023-05-19T10:33:18;97260;;;17.1;55.5
68628;BME280;55611;48.602;9.490;2023-05-19T10:38:26;97250;;;17;55.5
68628;BME280;55611;48.602;9.490;2023-05-19T10:40:52;97250;;;16.9;56
68628;BME280;55611;48.602;9.490;2023-05-19T10:43:32;97250;;;16.8;56
68628;BME280;55611;48.602;9.490;2023-05-19T10:45:52;97260;;;16.9;55.5
68628;BME280;55611;48.602;9.490;2023-05-19T10:48:23;97260;;;16.9;55.5
68628;BME280;55611;48.602;9.490;2023-05-19T10:50:54;97260;;;17;55.5
68628;BME280;55611;48.602;9.490;2023-05-19T10:53:29;97260;;;16.9;55.5
68628;BME280;55611;48.602;9.490;2023-05-19T10:55:55;97250;;;16.9;55.5
68628;BME280;55611;48.602;9.490;2023-05-19T10:58:48;97250;;;17;55.5
68628;BME280;55611;48.602;9.490;2023-05-19T11:01:00;97250;;;17.2;55.5
68628;BME280;55611;48.602;9.490;2023-05-19T11:03:28;97250;;;17.3;55.5
68628;BME280;55611;48.602;9.490;2023-05-19T11:06:30;97250;;;17.4;55.5
68628;BME280;55611;48.602;9.490;2023-05-19T11:08:31;97250;;;17.4;55.5
68628;BME280;55611;48.602;9.490;2023-05-19T11:11:16;97250;;;17.4;55.5
68628;BME280;55611;48.602;9.490;2023-05-19T11:13:31;97250;;;17.5;55.5
68628;BME280;55611;48.602;9.490;2023-05-19T11:16:06;97250;;;17.3;55.5
68628;BME280;55611;48.602;9.490;2023-05-19T11:18:32;97250;;;17.3;55.5
68628;BME280;55611;48.602;9.490;2023-05-19T11:21:03;97250;;;17.2;55.5
68628;BME280;55611;48.602;9.490;2023-05-19T11:23:36;97250;;;17.3;55.5
68628;BME280;55611;48.602;9.490;2023-05-19T11:26:05;97250;;;17.3;55.5
68628;BME280;55611;48.602;9.490;2023-05-19T11:28:35;97250;;;17.3;55.5
68628;BME280;55611;48.602;9.490;2023-05-19T11:31:06;97260;;;17.3;55.5
68628;BME280;55611;48.602;9.490;2023-05-19T11:33:37;97260;;;17.4;55.5
68628;BME280;55611;48.602;9.490;2023-05-19T11:36:08;97250;;;17.4;55.5
68628;BME280;55611;48.602;9.490;2023-05-19T11:38:38;97260;;;17.3;55.5
68628;BME280;55611;48.602;9.490;2023-05-19T11:41:09;97250;;;17.3;55.5
68628;BME280;55611;48.602;9.490;2023-05-19T11:43:40;97250;;;17.3;55.5
68628;BME280;55611;48.602;9.490;2023-05-19T11:46:11;97260;;;17.4;55.5
68628;BME280;55611;48.602;9.490;2023-05-19T11:48:45;97250;;;17.5;55.5
68628;BME280;55611;48.602;9.490;2023-05-19T11:51:12;97250;;;17.6;55.5
68628;BME280;55611;48.602;9.490;2023-05-19T11:53:43;97250;;;17.6;55.5
68628;BME280;55611;48.602;9.490;2023-05-19T11:56:14;97250;;;17.7;55.5
68628;BME280;55611;48.602;9.490;2023-05-19T11:58:45;97250;;;17.8;55.5
68628;BME280;55611;48.602;9.490;2023-05-19T12:01:15;97250;;;17.7;55.5
68628;BME280;55611;48.602;9.490;2023-05-19T12:03:46;97250;;;17.7;55.5
68628;BME280;55611;48.602;9.490;2023-05-19T12:06:17;97260;;;17.7;55.5
68628;BME280;55611;48.602;9.490;2023-05-19T12:08:49;97250;;;17.7;55.5
68628;BME280;55611;48.602;9.490;2023-05-19T12:11:18;97250;;;17.8;55.5
68628;BME280;55611;48.602;9.490;2023-05-19T12:13:49;97250;;;17.9;55.5
68628;BME280;55611;48.602;9.490;2023-05-19T12:16:20;97240;;;18.1;55.5
68628;BME280;55611;48.602;9.490;2023-05-19T12:18:51;97250;;;18.2;55.5
68628;BME280;55611;48.602;9.490;2023-05-19T12:21:22;97240;;;18.1;55.5
68628;BME280;55611;48.602;9.490;2023-05-19T12:23:52;97240;;;18.2;55.5
68628;BME280;55611;48.602;9.490;2023-05-19T12:26:23;97250;;;18.2;55
68628;BME280;55611;48.602;9.490;2023-05-19T12:28:54;97240;;;18.2;55
68628;BME280;55611;48.602;9.490;2023-05-19T12:31:25;97240;;;18;55
68628;BME280;55611;48.602;9.490;2023-05-19T12:33:55;97250;;;18;55
68628;BME280;55611;48.602;9.490;2023-05-19T12:36:26;97250;;;17.9;55
68628;BME280;55611;48.602;9.490;2023-05-19T12:38:57;97250;;;17.8;55.5
68628;BME280;55611;48.602;9.490;2023-05-19T12:41:28;97260;;;17.8;55.5
68628;BME280;55611;48.602;9.490;2023-05-19T12:43:58;97250;;;17.7;55.5
68628;BME280;55611;48.602;9.490;2023-05-19T12:46:31;97260;;;17.7;55.5
68628;BME280;55611;48.602;9.490;2023-05-19T12:49:00;97250;;;17.8;55.5
68628;BME280;55611;48.602;9.490;2023-05-19T12:51:31;97250;;;17.9;55.5
68628;BME280;55611;48.602;9.490;2023-05-19T12:54:02;97240;;;18;55.5
68628;BME280;55611;48.602;9.490;2023-05-19T12:56:32;97240;;;18.1;55.5
68628;BME280;55611;48.602;9.490;2023-05-19T12:59:03;97240;;;18.2;55.5
68628;BME280;55611;48.602;9.490;2023-05-19T13:01:35;97240;;;18.2;55
68628;BME280;55611;48.602;9.490;2023-05-19T13:04:05;97250;;;17.9;55
68628;BME280;55611;48.602;9.490;2023-05-19T13:06:35;97250;;;17.7;55
68628;BME280;55611;48.602;9.490;2023-05-19T13:09:06;97250;;;17.7;55
68628;BME280;55611;48.602;9.490;2023-05-19T13:11:37;97240;;;17.7;55
68628;BME280;55611;48.602;9.490;2023-05-19T13:14:08;97240;;;17.8;55
68628;BME280;55611;48.602;9.490;2023-05-19T13:16:39;97240;;;17.8;55
68628;BME280;55611;48.602;9.490;2023-05-19T13:19:09;97240;;;17.7;55
68628;BME280;55611;48.602;9.490;2023-05-19T13:21:40;97240;;;17.7;55
68628;BME280;55611;48.602;9.490;2023-05-19T13:24:11;97230;;;17.7;55
68628;BME280;55611;48.602;9.490;2023-05-19T13:26:42;97230;;;17.7;55
68628;BME280;55611;48.602;9.490;2023-05-19T13:29:13;97240;;;17.7;55
68628;BME280;55611;48.602;9.490;2023-05-19T13:31:43;97240;;;17.6;55
68628;BME280;55611;48.602;9.490;2023-05-19T13:34:14;97230;;;17.4;55.5
68628;BME280;55611;48.602;9.490;2023-05-19T13:36:45;97240;;;17.3;55.5
68628;BME280;55611;48.602;9.490;2023-05-19T13:39:16;97230;;;17.3;55
68628;BME280;55611;48.602;9.490;2023-05-19T13:41:46;97230;;;17.3;55
68628;BME280;55611;48.602;9.490;2023-05-19T13:44:17;97230;;;17.3;55
68628;BME280;55611;48.602;9.490;2023-05-19T13:46:48;97230;;;17.2;55
68628;BME280;55611;48.602;9.490;2023-05-19T13:49:19;97220;;;17.1;55.5
68628;BME280;55611;48.602;9.490;2023-05-19T13:51:50;97220;;;17.2;55
68628;BME280;55611;48.602;9.490;2023-05-19T13:54:20;97220;;;17.3;55
68628;BME280;55611;48.602;9.490;2023-05-19T13:56:51;97220;;;17.3;55
68628;BME280;55611;48.602;9.490;2023-05-19T13:59:22;97220;;;17.3;55
68628;BME280;55611;48.602;9.490;2023-05-19T14:01:52;97220;;;17.3;55
68628;BME280;55611;48.602;9.490;2023-05-19T14:04:23;97210;;;17.4;55
68628;BME280;55611;48.602;9.490;2023-05-19T14:06:54;97200;;;17.4;55
68628;BME280;55611;48.602;9.490;2023-05-19T14:09:25;97210;;;17.5;55
68628;BME280;55611;48.602;9.490;2023-05-19T14:11:56;97210;;;17.4;55
68628;BME280;55611;48.602;9.490;2023-05-19T14:14:26;97210;;;17.4;55
68628;BME280;55611;48.602;9.490;2023-05-19T14:16:57;97200;;;17.4;55
68628;BME280;55611;48.602;9.490;2023-05-19T14:19:28;97210;;;17.5;55
68628;BME280;55611;48.602;9.490;2023-05-19T14:21:59;97210;;;17.7;55
68628;BME280;55611;48.602;9.490;2023-05-19T14:24:29;97210;;;17.7;55
68628;BME280;55611;48.602;9.490;2023-05-19T14:27:00;97200;;;17.8;55
68628;BME280;55611;48.602;9.490;2023-05-19T14:29:31;97200;;;17.8;55
68628;BME280;55611;48.602;9.490;2023-05-19T14:32:02;97200;;;17.9;55
68628;BME280;55611;48.602;9.490;2023-05-19T14:34:33;97210;;;17.9;55
68628;BME280;55611;48.602;9.490;2023-05-19T14:37:03;97210;;;18;55
68628;BME280;55611;48.602;9.490;2023-05-19T14:39:34;97210;;;17.9;55